KAND/AND METAR and TAF weather

Enter ICAO airport designator
Station Type Date Time Source
KAND METAR 2019/02/23 22:56 UTC NOAA

KAND 232256Z AUTO 08005KT 3SM BR OVC008 07/06 A3014 RMK AO2 CIG 004V010 SLP207 T00670061


Station Type Date Time Source
KAND Decoded METAR 2019/02/23 22:56 UTC NOAA

ANDERSON COUNTY AIRPORT, SC, United States (KAND) 34-30N 82-43W 239M
Feb 23, 2019 - 05:56 PM EST / 2019.02.23 2256 UTC
Wind: from the E (080 degrees) at 6 MPH (5 KT):0
Visibility: 3 mile(s):0
Sky conditions: overcast
Weather: mist
Temperature: 44.1 F (6.7 C)
Dew Point: 43.0 F (6.1 C)
Relative Humidity: 95%
Pressure (altimeter): 30.14 in. Hg (1020 hPa)
ob: KAND 232256Z AUTO 08005KT 3SM BR OVC008 07/06 A3014 RMK AO2 CIG 004V010 SLP207 T00670061
cycle: 23

Station Type Date Time Source
KAND TAF 2019/02/23 20:58 UTC NOAA

TAF
AMD KAND 231958Z 2320/2418 06006KT 3SM BR VCSH OVC005
FM240500 09005KT 1SM -SHRA BR OVC004
FM240800 15005KT 2SM +SHRA BR OVC004 WS020/20030KT
FM241100 21008KT 3SM -SHRA BR OVC006
FM241400 25011G18KT 4SM BR SCT030
FM241600 25022G25KT P6SM FEW250


Example: see airport list